sensor_id;sensor_type;location;lat;lon;timestamp;P1;durP1;ratioP1;P2;durP2;ratioP2
7398;SDS011;3740;50.700;7.184;2022-12-18T00:02:21;34.73;;;27.00;;
7398;SDS011;3740;50.700;7.184;2022-12-18T00:04:47;33.73;;;25.90;;
7398;SDS011;3740;50.700;7.184;2022-12-18T00:07:12;35.60;;;27.00;;
7398;SDS011;3740;50.700;7.184;2022-12-18T00:09:38;37.10;;;27.87;;
7398;SDS011;3740;50.700;7.184;2022-12-18T00:12:03;35.33;;;26.50;;
7398;SDS011;3740;50.700;7.184;2022-12-18T00:14:29;32.03;;;25.43;;
7398;SDS011;3740;50.700;7.184;2022-12-18T00:16:54;35.00;;;26.80;;
7398;SDS011;3740;50.700;7.184;2022-12-18T00:19:20;36.07;;;26.40;;
7398;SDS011;3740;50.700;7.184;2022-12-18T00:21:46;33.70;;;25.43;;
7398;SDS011;3740;50.700;7.184;2022-12-18T00:24:11;32.80;;;25.30;;
7398;SDS011;3740;50.700;7.184;2022-12-18T00:26:38;31.63;;;24.37;;
7398;SDS011;3740;50.700;7.184;2022-12-18T00:29:06;30.50;;;24.37;;
7398;SDS011;3740;50.700;7.184;2022-12-18T00:31:35;32.90;;;25.10;;
7398;SDS011;3740;50.700;7.184;2022-12-18T00:34:00;31.10;;;24.70;;
7398;SDS011;3740;50.700;7.184;2022-12-18T00:36:27;32.63;;;23.83;;
7398;SDS011;3740;50.700;7.184;2022-12-18T00:38:55;31.57;;;23.20;;
7398;SDS011;3740;50.700;7.184;2022-12-18T00:41:22;31.13;;;23.63;;
7398;SDS011;3740;50.700;7.184;2022-12-18T00:44:08;34.90;;;26.97;;
7398;SDS011;3740;50.700;7.184;2022-12-18T00:46:35;35.03;;;25.93;;
7398;SDS011;3740;50.700;7.184;2022-12-18T00:49:01;31.73;;;24.60;;
7398;SDS011;3740;50.700;7.184;2022-12-18T00:51:27;30.73;;;24.20;;
7398;SDS011;3740;50.700;7.184;2022-12-18T00:53:52;32.97;;;24.60;;
7398;SDS011;3740;50.700;7.184;2022-12-18T00:56:22;36.90;;;26.00;;
7398;SDS011;3740;50.700;7.184;2022-12-18T00:58:48;30.57;;;24.33;;
7398;SDS011;3740;50.700;7.184;2022-12-18T01:01:14;36.77;;;26.33;;
7398;SDS011;3740;50.700;7.184;2022-12-18T01:03:40;32.77;;;24.13;;
7398;SDS011;3740;50.700;7.184;2022-12-18T01:06:09;33.90;;;25.23;;
7398;SDS011;3740;50.700;7.184;2022-12-18T01:08:37;36.03;;;26.70;;
7398;SDS011;3740;50.700;7.184;2022-12-18T01:11:07;32.33;;;24.80;;
7398;SDS011;3740;50.700;7.184;2022-12-18T01:13:37;31.90;;;25.03;;
7398;SDS011;3740;50.700;7.184;2022-12-18T01:16:04;32.10;;;25.33;;
7398;SDS011;3740;50.700;7.184;2022-12-18T01:18:30;35.37;;;26.40;;
7398;SDS011;3740;50.700;7.184;2022-12-18T01:20:55;36.33;;;28.00;;
7398;SDS011;3740;50.700;7.184;2022-12-18T01:23:21;32.93;;;25.57;;
7398;SDS011;3740;50.700;7.184;2022-12-18T01:25:46;31.87;;;25.07;;
7398;SDS011;3740;50.700;7.184;2022-12-18T01:28:12;37.17;;;27.47;;
7398;SDS011;3740;50.700;7.184;2022-12-18T01:30:37;35.90;;;26.87;;
7398;SDS011;3740;50.700;7.184;2022-12-18T01:33:04;34.07;;;25.63;;
7398;SDS011;3740;50.700;7.184;2022-12-18T01:35:30;35.93;;;25.33;;
7398;SDS011;3740;50.700;7.184;2022-12-18T01:37:56;34.07;;;25.70;;
7398;SDS011;3740;50.700;7.184;2022-12-18T01:40:21;33.27;;;25.37;;
7398;SDS011;3740;50.700;7.184;2022-12-18T01:42:53;31.57;;;24.57;;
7398;SDS011;3740;50.700;7.184;2022-12-18T01:45:23;33.70;;;25.33;;
7398;SDS011;3740;50.700;7.184;2022-12-18T01:48:07;35.13;;;25.03;;
7398;SDS011;3740;50.700;7.184;2022-12-18T01:50:40;32.80;;;24.77;;
7398;SDS011;3740;50.700;7.184;2022-12-18T01:53:10;31.10;;;24.03;;
7398;SDS011;3740;50.700;7.184;2022-12-18T01:55:46;34.30;;;25.43;;
7398;SDS011;3740;50.700;7.184;2022-12-18T01:58:15;34.53;;;25.60;;
7398;SDS011;3740;50.700;7.184;2022-12-18T02:00:41;34.13;;;24.83;;
7398;SDS011;3740;50.700;7.184;2022-12-18T02:03:07;32.60;;;24.27;;
7398;SDS011;3740;50.700;7.184;2022-12-18T02:05:50;36.70;;;25.73;;
7398;SDS011;3740;50.700;7.184;2022-12-18T02:16:27;34.37;;;26.27;;
7398;SDS011;3740;50.700;7.184;2022-12-18T02:19:27;35.93;;;24.90;;
7398;SDS011;3740;50.700;7.184;2022-12-18T02:27:23;30.60;;;24.77;;
7398;SDS011;3740;50.700;7.184;2022-12-18T02:29:55;31.17;;;23.93;;
7398;SDS011;3740;50.700;7.184;2022-12-18T02:32:25;31.43;;;23.47;;
7398;SDS011;3740;50.700;7.184;2022-12-18T02:34:55;32.33;;;23.80;;
7398;SDS011;3740;50.700;7.184;2022-12-18T02:37:22;31.27;;;23.10;;
7398;SDS011;3740;50.700;7.184;2022-12-18T02:39:49;33.37;;;24.17;;
7398;SDS011;3740;50.700;7.184;2022-12-18T02:42:19;31.70;;;24.43;;
7398;SDS011;3740;50.700;7.184;2022-12-18T02:44:46;33.23;;;24.80;;
7398;SDS011;3740;50.700;7.184;2022-12-18T02:47:14;31.83;;;23.87;;
7398;SDS011;3740;50.700;7.184;2022-12-18T02:49:52;30.73;;;22.77;;
7398;SDS011;3740;50.700;7.184;2022-12-18T02:53:01;31.37;;;23.40;;
7398;SDS011;3740;50.700;7.184;2022-12-18T03:01:02;33.20;;;23.23;;
7398;SDS011;3740;50.700;7.184;2022-12-18T03:03:54;27.50;;;22.40;;
7398;SDS011;3740;50.700;7.184;2022-12-18T03:06:43;28.03;;;21.90;;
7398;SDS011;3740;50.700;7.184;2022-12-18T03:09:14;30.80;;;22.63;;
7398;SDS011;3740;50.700;7.184;2022-12-18T03:11:45;29.40;;;21.67;;
7398;SDS011;3740;50.700;7.184;2022-12-18T03:14:34;28.27;;;22.57;;
7398;SDS011;3740;50.700;7.184;2022-12-18T03:17:03;30.37;;;23.07;;
7398;SDS011;3740;50.700;7.184;2022-12-18T03:19:34;28.67;;;21.93;;
7398;SDS011;3740;50.700;7.184;2022-12-18T03:25:04;33.37;;;22.93;;
7398;SDS011;3740;50.700;7.184;2022-12-18T03:27:32;29.57;;;23.67;;
7398;SDS011;3740;50.700;7.184;2022-12-18T03:30:02;29.63;;;22.53;;
7398;SDS011;3740;50.700;7.184;2022-12-18T03:32:36;29.30;;;22.90;;
7398;SDS011;3740;50.700;7.184;2022-12-18T03:35:16;31.37;;;23.67;;
7398;SDS011;3740;50.700;7.184;2022-12-18T03:37:46;27.40;;;20.93;;
7398;SDS011;3740;50.700;7.184;2022-12-18T03:40:12;30.27;;;22.33;;
7398;SDS011;3740;50.700;7.184;2022-12-18T03:45:26;28.13;;;22.30;;
7398;SDS011;3740;50.700;7.184;2022-12-18T03:48:15;29.00;;;23.10;;
7398;SDS011;3740;50.700;7.184;2022-12-18T03:50:59;31.20;;;23.23;;
7398;SDS011;3740;50.700;7.184;2022-12-18T03:53:47;31.30;;;23.43;;
7398;SDS011;3740;50.700;7.184;2022-12-18T03:56:19;28.47;;;22.43;;
7398;SDS011;3740;50.700;7.184;2022-12-18T03:58:46;28.73;;;22.80;;
7398;SDS011;3740;50.700;7.184;2022-12-18T04:01:13;27.73;;;22.27;;
7398;SDS011;3740;50.700;7.184;2022-12-18T04:03:41;28.00;;;21.83;;
7398;SDS011;3740;50.700;7.184;2022-12-18T04:06:07;31.40;;;23.40;;
7398;SDS011;3740;50.700;7.184;2022-12-18T04:08:34;31.17;;;21.87;;
7398;SDS011;3740;50.700;7.184;2022-12-18T04:11:01;30.13;;;23.13;;
7398;SDS011;3740;50.700;7.184;2022-12-18T04:13:28;30.13;;;23.40;;
7398;SDS011;3740;50.700;7.184;2022-12-18T04:15:57;30.57;;;22.67;;
7398;SDS011;3740;50.700;7.184;2022-12-18T04:18:22;28.90;;;22.33;;
7398;SDS011;3740;50.700;7.184;2022-12-18T04:20:48;29.10;;;21.27;;
7398;SDS011;3740;50.700;7.184;2022-12-18T04:23:13;29.77;;;22.53;;
7398;SDS011;3740;50.700;7.184;2022-12-18T04:25:39;30.50;;;22.67;;
7398;SDS011;3740;50.700;7.184;2022-12-18T04:28:04;29.57;;;22.40;;
7398;SDS011;3740;50.700;7.184;2022-12-18T04:30:30;27.87;;;21.67;;
7398;SDS011;3740;50.700;7.184;2022-12-18T04:32:56;28.80;;;22.30;;
7398;SDS011;3740;50.700;7.184;2022-12-18T04:35:21;28.23;;;21.83;;
7398;SDS011;3740;50.700;7.184;2022-12-18T04:37:47;30.40;;;21.30;;
7398;SDS011;3740;50.700;7.184;2022-12-18T04:40:12;27.77;;;21.17;;
7398;SDS011;3740;50.700;7.184;2022-12-18T04:42:38;26.43;;;21.10;;
7398;SDS011;3740;50.700;7.184;2022-12-18T04:45:05;28.93;;;21.57;;
7398;SDS011;3740;50.700;7.184;2022-12-18T04:47:31;27.73;;;21.13;;
7398;SDS011;3740;50.700;7.184;2022-12-18T04:49:57;26.73;;;20.90;;
7398;SDS011;3740;50.700;7.184;2022-12-18T04:52:22;27.80;;;21.53;;
7398;SDS011;3740;50.700;7.184;2022-12-18T04:54:48;25.77;;;20.27;;
7398;SDS011;3740;50.700;7.184;2022-12-18T04:57:13;28.53;;;20.77;;
7398;SDS011;3740;50.700;7.184;2022-12-18T04:59:39;28.37;;;21.07;;
7398;SDS011;3740;50.700;7.184;2022-12-18T05:02:04;27.23;;;20.57;;
7398;SDS011;3740;50.700;7.184;2022-12-18T05:04:30;27.13;;;20.27;;
7398;SDS011;3740;50.700;7.184;2022-12-18T05:06:56;26.27;;;19.87;;
7398;SDS011;3740;50.700;7.184;2022-12-18T05:09:21;26.93;;;21.07;;
7398;SDS011;3740;50.700;7.184;2022-12-18T05:11:47;25.17;;;19.40;;
7398;SDS011;3740;50.700;7.184;2022-12-18T05:14:13;25.03;;;19.17;;
7398;SDS011;3740;50.700;7.184;2022-12-18T05:16:38;24.80;;;19.90;;
7398;SDS011;3740;50.700;7.184;2022-12-18T05:19:04;25.53;;;19.23;;
7398;SDS011;3740;50.700;7.184;2022-12-18T05:21:29;21.90;;;18.10;;
7398;SDS011;3740;50.700;7.184;2022-12-18T05:23:55;25.97;;;19.40;;
7398;SDS011;3740;50.700;7.184;2022-12-18T05:26:20;23.97;;;19.53;;
7398;SDS011;3740;50.700;7.184;2022-12-18T05:28:46;25.37;;;18.57;;
7398;SDS011;3740;50.700;7.184;2022-12-18T05:31:12;25.13;;;18.73;;
7398;SDS011;3740;50.700;7.184;2022-12-18T05:33:38;25.23;;;18.93;;
7398;SDS011;3740;50.700;7.184;2022-12-18T05:36:05;24.03;;;18.90;;
7398;SDS011;3740;50.700;7.184;2022-12-18T05:38:33;26.57;;;19.77;;
7398;SDS011;3740;50.700;7.184;2022-12-18T05:41:00;23.60;;;19.40;;
7398;SDS011;3740;50.700;7.184;2022-12-18T05:43:26;25.13;;;19.13;;
7398;SDS011;3740;50.700;7.184;2022-12-18T05:45:52;27.53;;;20.17;;
7398;SDS011;3740;50.700;7.184;2022-12-18T05:48:18;24.30;;;19.40;;
7398;SDS011;3740;50.700;7.184;2022-12-18T05:50:44;24.53;;;20.10;;
7398;SDS011;3740;50.700;7.184;2022-12-18T05:53:11;26.00;;;20.27;;
7398;SDS011;3740;50.700;7.184;2022-12-18T05:55:38;27.13;;;20.53;;
7398;SDS011;3740;50.700;7.184;2022-12-18T05:58:05;25.47;;;20.00;;
7398;SDS011;3740;50.700;7.184;2022-12-18T06:00:33;28.33;;;20.27;;
7398;SDS011;3740;50.700;7.184;2022-12-18T06:03:01;26.03;;;19.90;;
7398;SDS011;3740;50.700;7.184;2022-12-18T06:05:27;26.13;;;20.20;;
7398;SDS011;3740;50.700;7.184;2022-12-18T06:07:52;26.40;;;20.53;;
7398;SDS011;3740;50.700;7.184;2022-12-18T06:10:18;26.47;;;19.37;;
7398;SDS011;3740;50.700;7.184;2022-12-18T06:12:44;26.47;;;20.47;;
7398;SDS011;3740;50.700;7.184;2022-12-18T06:15:10;28.30;;;21.43;;
7398;SDS011;3740;50.700;7.184;2022-12-18T06:17:35;28.00;;;22.33;;
7398;SDS011;3740;50.700;7.184;2022-12-18T06:20:01;28.17;;;21.57;;
7398;SDS011;3740;50.700;7.184;2022-12-18T06:22:27;28.13;;;21.47;;
7398;SDS011;3740;50.700;7.184;2022-12-18T06:24:55;29.13;;;22.33;;
7398;SDS011;3740;50.700;7.184;2022-12-18T06:27:20;30.33;;;23.43;;
7398;SDS011;3740;50.700;7.184;2022-12-18T06:29:46;33.23;;;23.87;;
7398;SDS011;3740;50.700;7.184;2022-12-18T06:32:12;31.73;;;24.57;;
7398;SDS011;3740;50.700;7.184;2022-12-18T06:34:38;29.40;;;23.07;;
7398;SDS011;3740;50.700;7.184;2022-12-18T06:37:03;31.23;;;23.37;;
7398;SDS011;3740;50.700;7.184;2022-12-18T06:39:29;30.33;;;23.80;;
7398;SDS011;3740;50.700;7.184;2022-12-18T06:41:55;29.50;;;23.33;;
7398;SDS011;3740;50.700;7.184;2022-12-18T06:44:20;31.70;;;24.60;;
7398;SDS011;3740;50.700;7.184;2022-12-18T06:46:46;28.20;;;23.13;;
7398;SDS011;3740;50.700;7.184;2022-12-18T06:49:12;29.93;;;24.40;;
7398;SDS011;3740;50.700;7.184;2022-12-18T06:51:37;27.17;;;21.63;;
7398;SDS011;3740;50.700;7.184;2022-12-18T06:54:03;30.33;;;22.60;;
7398;SDS011;3740;50.700;7.184;2022-12-18T06:56:29;26.40;;;21.20;;
7398;SDS011;3740;50.700;7.184;2022-12-18T06:58:54;26.53;;;21.33;;
7398;SDS011;3740;50.700;7.184;2022-12-18T07:01:20;27.53;;;21.13;;
7398;SDS011;3740;50.700;7.184;2022-12-18T07:03:46;28.83;;;22.20;;
7398;SDS011;3740;50.700;7.184;2022-12-18T07:06:15;27.50;;;22.13;;
7398;SDS011;3740;50.700;7.184;2022-12-18T07:08:46;29.03;;;22.00;;
7398;SDS011;3740;50.700;7.184;2022-12-18T07:11:13;30.43;;;23.33;;
7398;SDS011;3740;50.700;7.184;2022-12-18T07:13:38;33.47;;;25.07;;
7398;SDS011;3740;50.700;7.184;2022-12-18T07:16:14;28.73;;;22.77;;
7398;SDS011;3740;50.700;7.184;2022-12-18T07:18:42;29.73;;;23.30;;
7398;SDS011;3740;50.700;7.184;2022-12-18T07:21:08;27.00;;;21.57;;
7398;SDS011;3740;50.700;7.184;2022-12-18T07:23:36;30.10;;;23.27;;
7398;SDS011;3740;50.700;7.184;2022-12-18T07:26:05;30.17;;;23.53;;
7398;SDS011;3740;50.700;7.184;2022-12-18T07:28:38;27.20;;;22.33;;
7398;SDS011;3740;50.700;7.184;2022-12-18T07:31:11;27.30;;;22.60;;
7398;SDS011;3740;50.700;7.184;2022-12-18T07:33:39;28.37;;;21.57;;
7398;SDS011;3740;50.700;7.184;2022-12-18T07:36:06;28.00;;;22.27;;
7398;SDS011;3740;50.700;7.184;2022-12-18T07:38:32;27.93;;;22.03;;
7398;SDS011;3740;50.700;7.184;2022-12-18T07:41:09;26.33;;;21.00;;
7398;SDS011;3740;50.700;7.184;2022-12-18T07:43:36;27.00;;;21.13;;
7398;SDS011;3740;50.700;7.184;2022-12-18T07:46:02;26.07;;;21.37;;
7398;SDS011;3740;50.700;7.184;2022-12-18T07:48:28;26.17;;;21.80;;
7398;SDS011;3740;50.700;7.184;2022-12-18T07:50:58;29.20;;;23.00;;
7398;SDS011;3740;50.700;7.184;2022-12-18T07:53:28;31.10;;;24.20;;
7398;SDS011;3740;50.700;7.184;2022-12-18T07:55:57;32.37;;;24.50;;
7398;SDS011;3740;50.700;7.184;2022-12-18T07:58:30;32.50;;;26.43;;
7398;SDS011;3740;50.700;7.184;2022-12-18T08:03:50;30.00;;;23.90;;
7398;SDS011;3740;50.700;7.184;2022-12-18T08:06:16;34.60;;;27.47;;
7398;SDS011;3740;50.700;7.184;2022-12-18T08:08:41;34.13;;;25.43;;
7398;SDS011;3740;50.700;7.184;2022-12-18T08:11:07;33.10;;;24.87;;
7398;SDS011;3740;50.700;7.184;2022-12-18T08:13:33;35.43;;;26.93;;
7398;SDS011;3740;50.700;7.184;2022-12-18T08:15:59;41.67;;;32.17;;
7398;SDS011;3740;50.700;7.184;2022-12-18T08:18:27;41.40;;;31.77;;
7398;SDS011;3740;50.700;7.184;2022-12-18T08:20:53;38.97;;;31.83;;
7398;SDS011;3740;50.700;7.184;2022-12-18T08:23:19;36.20;;;29.70;;
7398;SDS011;3740;50.700;7.184;2022-12-18T08:25:45;34.17;;;26.60;;
7398;SDS011;3740;50.700;7.184;2022-12-18T08:28:10;33.73;;;26.20;;
7398;SDS011;3740;50.700;7.184;2022-12-18T08:30:36;31.23;;;23.70;;
7398;SDS011;3740;50.700;7.184;2022-12-18T08:33:01;31.40;;;24.20;;
7398;SDS011;3740;50.700;7.184;2022-12-18T08:35:27;29.30;;;23.10;;
7398;SDS011;3740;50.700;7.184;2022-12-18T08:37:53;32.60;;;23.77;;
7398;SDS011;3740;50.700;7.184;2022-12-18T08:40:18;29.87;;;23.37;;
7398;SDS011;3740;50.700;7.184;2022-12-18T08:42:44;28.57;;;22.57;;
7398;SDS011;3740;50.700;7.184;2022-12-18T08:45:28;32.87;;;24.13;;
7398;SDS011;3740;50.700;7.184;2022-12-18T08:47:53;30.63;;;24.23;;
7398;SDS011;3740;50.700;7.184;2022-12-18T08:50:19;29.67;;;23.50;;
7398;SDS011;3740;50.700;7.184;2022-12-18T08:52:45;28.90;;;23.37;;
7398;SDS011;3740;50.700;7.184;2022-12-18T08:55:10;27.13;;;22.73;;
7398;SDS011;3740;50.700;7.184;2022-12-18T08:57:36;30.67;;;22.83;;
7398;SDS011;3740;50.700;7.184;2022-12-18T09:00:02;29.50;;;23.17;;
7398;SDS011;3740;50.700;7.184;2022-12-18T09:02:29;32.43;;;24.47;;
7398;SDS011;3740;50.700;7.184;2022-12-18T09:04:54;29.77;;;24.30;;
7398;SDS011;3740;50.700;7.184;2022-12-18T09:07:20;31.93;;;23.83;;
7398;SDS011;3740;50.700;7.184;2022-12-18T09:09:45;30.10;;;24.33;;
7398;SDS011;3740;50.700;7.184;2022-12-18T09:12:11;30.13;;;24.50;;
7398;SDS011;3740;50.700;7.184;2022-12-18T09:14:36;31.63;;;24.33;;
7398;SDS011;3740;50.700;7.184;2022-12-18T09:17:02;27.97;;;23.30;;
7398;SDS011;3740;50.700;7.184;2022-12-18T09:19:28;28.57;;;22.13;;
7398;SDS011;3740;50.700;7.184;2022-12-18T09:21:53;30.00;;;23.43;;
7398;SDS011;3740;50.700;7.184;2022-12-18T09:24:19;29.17;;;23.77;;
7398;SDS011;3740;50.700;7.184;2022-12-18T09:26:44;28.13;;;22.67;;
7398;SDS011;3740;50.700;7.184;2022-12-18T09:29:10;28.30;;;22.97;;
7398;SDS011;3740;50.700;7.184;2022-12-18T09:31:36;29.87;;;22.63;;
7398;SDS011;3740;50.700;7.184;2022-12-18T09:34:02;29.97;;;23.67;;
7398;SDS011;3740;50.700;7.184;2022-12-18T09:36:28;31.70;;;23.77;;
7398;SDS011;3740;50.700;7.184;2022-12-18T09:38:53;29.23;;;23.13;;
7398;SDS011;3740;50.700;7.184;2022-12-18T09:44:18;28.50;;;23.17;;
7398;SDS011;3740;50.700;7.184;2022-12-18T09:46:51;28.57;;;23.23;;
7398;SDS011;3740;50.700;7.184;2022-12-18T09:49:42;26.70;;;21.23;;
7398;SDS011;3740;50.700;7.184;2022-12-18T09:54:41;27.40;;;22.17;;
7398;SDS011;3740;50.700;7.184;2022-12-18T09:57:15;26.63;;;21.63;;
7398;SDS011;3740;50.700;7.184;2022-12-18T09:59:46;29.07;;;22.13;;
7398;SDS011;3740;50.700;7.184;2022-12-18T10:02:20;26.60;;;21.63;;
7398;SDS011;3740;50.700;7.184;2022-12-18T10:04:58;28.93;;;21.57;;
7398;SDS011;3740;50.700;7.184;2022-12-18T10:07:47;26.83;;;21.43;;
7398;SDS011;3740;50.700;7.184;2022-12-18T10:10:24;26.67;;;21.43;;
7398;SDS011;3740;50.700;7.184;2022-12-18T10:13:07;25.00;;;20.77;;
7398;SDS011;3740;50.700;7.184;2022-12-18T10:15:58;24.13;;;20.17;;
7398;SDS011;3740;50.700;7.184;2022-12-18T10:21:22;25.03;;;21.20;;
7398;SDS011;3740;50.700;7.184;2022-12-18T10:24:02;26.10;;;21.73;;
7398;SDS011;3740;50.700;7.184;2022-12-18T10:26:49;23.23;;;19.90;;
7398;SDS011;3740;50.700;7.184;2022-12-18T10:29:16;23.77;;;20.40;;
7398;SDS011;3740;50.700;7.184;2022-12-18T10:31:42;24.07;;;20.17;;
7398;SDS011;3740;50.700;7.184;2022-12-18T10:34:15;24.77;;;19.97;;
7398;SDS011;3740;50.700;7.184;2022-12-18T10:36:40;22.83;;;19.20;;
7398;SDS011;3740;50.700;7.184;2022-12-18T10:39:20;21.53;;;18.70;;
7398;SDS011;3740;50.700;7.184;2022-12-18T10:41:47;22.43;;;18.17;;
7398;SDS011;3740;50.700;7.184;2022-12-18T10:44:23;22.13;;;17.90;;
7398;SDS011;3740;50.700;7.184;2022-12-18T10:46:53;21.40;;;17.97;;
7398;SDS011;3740;50.700;7.184;2022-12-18T10:49:27;22.40;;;18.87;;
7398;SDS011;3740;50.700;7.184;2022-12-18T10:52:06;20.63;;;17.80;;
7398;SDS011;3740;50.700;7.184;2022-12-18T10:54:57;21.73;;;17.83;;
7398;SDS011;3740;50.700;7.184;2022-12-18T11:02:49;20.67;;;17.53;;
7398;SDS011;3740;50.700;7.184;2022-12-18T11:07:55;19.83;;;16.57;;
7398;SDS011;3740;50.700;7.184;2022-12-18T11:10:26;20.33;;;17.00;;
7398;SDS011;3740;50.700;7.184;2022-12-18T11:12:55;17.93;;;15.40;;
7398;SDS011;3740;50.700;7.184;2022-12-18T11:15:33;18.87;;;16.60;;
7398;SDS011;3740;50.700;7.184;2022-12-18T11:17:59;19.07;;;16.93;;
7398;SDS011;3740;50.700;7.184;2022-12-18T11:20:31;19.23;;;17.23;;
7398;SDS011;3740;50.700;7.184;2022-12-18T11:23:00;19.00;;;16.73;;
7398;SDS011;3740;50.700;7.184;2022-12-18T11:25:28;20.20;;;16.93;;
7398;SDS011;3740;50.700;7.184;2022-12-18T11:28:02;20.13;;;16.97;;
7398;SDS011;3740;50.700;7.184;2022-12-18T11:30:36;19.30;;;17.20;;
7398;SDS011;3740;50.700;7.184;2022-12-18T11:33:20;22.63;;;18.00;;
7398;SDS011;3740;50.700;7.184;2022-12-18T11:35:53;20.80;;;17.03;;
7398;SDS011;3740;50.700;7.184;2022-12-18T11:38:24;20.23;;;17.20;;
7398;SDS011;3740;50.700;7.184;2022-12-18T11:43:45;21.40;;;17.90;;
7398;SDS011;3740;50.700;7.184;2022-12-18T11:46:37;20.87;;;18.17;;
7398;SDS011;3740;50.700;7.184;2022-12-18T11:49:15;21.03;;;18.27;;
7398;SDS011;3740;50.700;7.184;2022-12-18T11:51:51;21.20;;;18.50;;
7398;SDS011;3740;50.700;7.184;2022-12-18T11:54:25;22.73;;;18.60;;
7398;SDS011;3740;50.700;7.184;2022-12-18T11:56:53;22.20;;;18.77;;
7398;SDS011;3740;50.700;7.184;2022-12-18T12:08:06;21.10;;;18.73;;
7398;SDS011;3740;50.700;7.184;2022-12-18T12:10:48;21.83;;;19.30;;
7398;SDS011;3740;50.700;7.184;2022-12-18T12:32:00;22.67;;;19.77;;
7398;SDS011;3740;50.700;7.184;2022-12-18T12:40:17;23.60;;;18.93;;
7398;SDS011;3740;50.700;7.184;2022-12-18T12:42:45;23.20;;;19.90;;
7398;SDS011;3740;50.700;7.184;2022-12-18T12:45:54;24.00;;;19.37;;
7398;SDS011;3740;50.700;7.184;2022-12-18T12:48:36;23.77;;;18.87;;
7398;SDS011;3740;50.700;7.184;2022-12-18T12:51:06;22.83;;;19.93;;
7398;SDS011;3740;50.700;7.184;2022-12-18T12:53:37;20.70;;;18.03;;
7398;SDS011;3740;50.700;7.184;2022-12-18T12:56:04;21.73;;;18.20;;
7398;SDS011;3740;50.700;7.184;2022-12-18T13:04:03;21.93;;;18.83;;
7398;SDS011;3740;50.700;7.184;2022-12-18T13:12:57;22.73;;;19.10;;
7398;SDS011;3740;50.700;7.184;2022-12-18T13:15:46;23.30;;;19.23;;
7398;SDS011;3740;50.700;7.184;2022-12-18T13:23:23;26.60;;;21.83;;
7398;SDS011;3740;50.700;7.184;2022-12-18T13:25:54;25.93;;;22.20;;
7398;SDS011;3740;50.700;7.184;2022-12-18T13:31:10;27.07;;;21.77;;
7398;SDS011;3740;50.700;7.184;2022-12-18T13:33:38;26.13;;;21.57;;
7398;SDS011;3740;50.700;7.184;2022-12-18T13:39:10;27.27;;;23.57;;
7398;SDS011;3740;50.700;7.184;2022-12-18T13:41:40;25.43;;;22.53;;
7398;SDS011;3740;50.700;7.184;2022-12-18T13:46:58;26.80;;;23.00;;
7398;SDS011;3740;50.700;7.184;2022-12-18T13:49:31;29.40;;;23.50;;
7398;SDS011;3740;50.700;7.184;2022-12-18T13:52:14;30.57;;;23.43;;
7398;SDS011;3740;50.700;7.184;2022-12-18T13:54:47;28.10;;;24.57;;
7398;SDS011;3740;50.700;7.184;2022-12-18T13:59:59;27.00;;;23.67;;
7398;SDS011;3740;50.700;7.184;2022-12-18T14:02:47;28.30;;;23.03;;
7398;SDS011;3740;50.700;7.184;2022-12-18T14:05:27;27.27;;;22.83;;
7398;SDS011;3740;50.700;7.184;2022-12-18T14:07:55;28.67;;;23.00;;
7398;SDS011;3740;50.700;7.184;2022-12-18T14:10:30;26.40;;;21.33;;
7398;SDS011;3740;50.700;7.184;2022-12-18T14:12:55;26.33;;;22.30;;
7398;SDS011;3740;50.700;7.184;2022-12-18T14:17:56;26.30;;;21.60;;
7398;SDS011;3740;50.700;7.184;2022-12-18T14:20:45;26.40;;;21.93;;
7398;SDS011;3740;50.700;7.184;2022-12-18T14:26:01;28.40;;;23.23;;
7398;SDS011;3740;50.700;7.184;2022-12-18T14:28:29;30.90;;;24.33;;
7398;SDS011;3740;50.700;7.184;2022-12-18T14:30:55;25.87;;;21.80;;
7398;SDS011;3740;50.700;7.184;2022-12-18T14:33:22;26.50;;;21.97;;
7398;SDS011;3740;50.700;7.184;2022-12-18T14:35:54;28.30;;;23.63;;
7398;SDS011;3740;50.700;7.184;2022-12-18T14:40:53;24.93;;;20.97;;
7398;SDS011;3740;50.700;7.184;2022-12-18T14:43:20;27.03;;;22.50;;
7398;SDS011;3740;50.700;7.184;2022-12-18T14:45:46;27.47;;;22.90;;
7398;SDS011;3740;50.700;7.184;2022-12-18T14:48:16;29.77;;;23.27;;
7398;SDS011;3740;50.700;7.184;2022-12-18T14:50:44;26.53;;;23.07;;
7398;SDS011;3740;50.700;7.184;2022-12-18T14:53:20;26.27;;;22.13;;
7398;SDS011;3740;50.700;7.184;2022-12-18T14:55:48;27.17;;;22.60;;
7398;SDS011;3740;50.700;7.184;2022-12-18T14:58:15;27.90;;;23.80;;
7398;SDS011;3740;50.700;7.184;2022-12-18T15:00:43;28.30;;;23.17;;
7398;SDS011;3740;50.700;7.184;2022-12-18T15:03:08;30.10;;;23.27;;
7398;SDS011;3740;50.700;7.184;2022-12-18T15:05:35;27.83;;;23.33;;
7398;SDS011;3740;50.700;7.184;2022-12-18T15:08:01;28.90;;;24.40;;
7398;SDS011;3740;50.700;7.184;2022-12-18T15:10:31;28.83;;;23.80;;
7398;SDS011;3740;50.700;7.184;2022-12-18T15:18:05;28.17;;;23.97;;
7398;SDS011;3740;50.700;7.184;2022-12-18T15:23:16;30.77;;;23.50;;
7398;SDS011;3740;50.700;7.184;2022-12-18T15:25:48;31.00;;;26.30;;
7398;SDS011;3740;50.700;7.184;2022-12-18T15:28:26;29.20;;;25.30;;
7398;SDS011;3740;50.700;7.184;2022-12-18T15:33:39;28.23;;;23.73;;
7398;SDS011;3740;50.700;7.184;2022-12-18T15:36:29;29.37;;;24.80;;
7398;SDS011;3740;50.700;7.184;2022-12-18T15:38:55;33.23;;;27.27;;
7398;SDS011;3740;50.700;7.184;2022-12-18T15:41:22;32.07;;;25.13;;
7398;SDS011;3740;50.700;7.184;2022-12-18T15:43:49;29.47;;;24.80;;
7398;SDS011;3740;50.700;7.184;2022-12-18T15:46:17;31.37;;;25.87;;
7398;SDS011;3740;50.700;7.184;2022-12-18T15:48:48;32.63;;;26.03;;
7398;SDS011;3740;50.700;7.184;2022-12-18T15:51:16;32.23;;;26.80;;
7398;SDS011;3740;50.700;7.184;2022-12-18T15:53:44;30.00;;;25.53;;
7398;SDS011;3740;50.700;7.184;2022-12-18T15:56:12;34.33;;;27.33;;
7398;SDS011;3740;50.700;7.184;2022-12-18T15:58:57;31.03;;;25.40;;
7398;SDS011;3740;50.700;7.184;2022-12-18T16:01:24;31.63;;;26.33;;
7398;SDS011;3740;50.700;7.184;2022-12-18T16:03:51;33.23;;;27.20;;
7398;SDS011;3740;50.700;7.184;2022-12-18T16:06:18;31.80;;;26.43;;
7398;SDS011;3740;50.700;7.184;2022-12-18T16:08:43;32.37;;;26.30;;
7398;SDS011;3740;50.700;7.184;2022-12-18T16:11:30;32.30;;;26.13;;
7398;SDS011;3740;50.700;7.184;2022-12-18T16:14:21;32.53;;;27.27;;
7398;SDS011;3740;50.700;7.184;2022-12-18T16:16:53;32.90;;;26.00;;
7398;SDS011;3740;50.700;7.184;2022-12-18T16:19:21;34.03;;;26.83;;
7398;SDS011;3740;50.700;7.184;2022-12-18T16:21:47;33.87;;;26.97;;
7398;SDS011;3740;50.700;7.184;2022-12-18T16:24:18;34.93;;;29.00;;
7398;SDS011;3740;50.700;7.184;2022-12-18T16:26:47;31.23;;;25.97;;
7398;SDS011;3740;50.700;7.184;2022-12-18T16:29:13;31.77;;;26.80;;
7398;SDS011;3740;50.700;7.184;2022-12-18T16:31:39;34.20;;;26.23;;
7398;SDS011;3740;50.700;7.184;2022-12-18T16:34:18;32.90;;;26.07;;
7398;SDS011;3740;50.700;7.184;2022-12-18T16:36:51;32.00;;;25.60;;
7398;SDS011;3740;50.700;7.184;2022-12-18T16:39:18;32.83;;;26.03;;
7398;SDS011;3740;50.700;7.184;2022-12-18T16:41:44;35.30;;;27.40;;
7398;SDS011;3740;50.700;7.184;2022-12-18T16:44:09;33.80;;;26.90;;
7398;SDS011;3740;50.700;7.184;2022-12-18T16:46:36;31.57;;;26.13;;
7398;SDS011;3740;50.700;7.184;2022-12-18T16:49:02;35.67;;;27.00;;
7398;SDS011;3740;50.700;7.184;2022-12-18T16:51:28;32.13;;;26.90;;
7398;SDS011;3740;50.700;7.184;2022-12-18T16:53:54;33.67;;;26.73;;
7398;SDS011;3740;50.700;7.184;2022-12-18T16:56:20;32.37;;;26.10;;
7398;SDS011;3740;50.700;7.184;2022-12-18T16:58:49;33.10;;;26.97;;
7398;SDS011;3740;50.700;7.184;2022-12-18T17:01:16;35.20;;;27.53;;
7398;SDS011;3740;50.700;7.184;2022-12-18T17:03:41;30.53;;;26.37;;
7398;SDS011;3740;50.700;7.184;2022-12-18T17:06:07;33.70;;;27.17;;
7398;SDS011;3740;50.700;7.184;2022-12-18T17:08:33;36.40;;;29.63;;
7398;SDS011;3740;50.700;7.184;2022-12-18T17:11:05;31.73;;;26.33;;